createdAt,value
2018-04-14T00:02:00.837Z,39.17
2018-04-14T00:04:29.226Z,40.37
2018-04-14T00:06:56.758Z,40.87
2018-04-14T00:09:24.282Z,40.63
2018-04-14T00:11:51.855Z,40.10
2018-04-14T00:14:19.371Z,40.00
2018-04-14T00:16:46.914Z,38.33
2018-04-14T00:19:14.492Z,38.90
2018-04-14T00:21:42.022Z,40.37
2018-04-14T00:24:09.582Z,40.33
2018-04-14T00:26:37.098Z,39.90
2018-04-14T00:29:04.630Z,39.13
2018-04-14T00:31:32.949Z,40.43
2018-04-14T00:34:00.542Z,40.03
2018-04-14T00:36:28.091Z,39.57
2018-04-14T00:38:55.642Z,37.80
2018-04-14T00:41:23.178Z,40.47
2018-04-14T00:43:50.686Z,41.07
2018-04-14T00:46:18.223Z,40.77
2018-04-14T00:48:45.772Z,39.97
2018-04-14T00:51:13.255Z,40.50
2018-04-14T00:53:47.521Z,40.93
2018-04-14T00:56:15.802Z,38.87
2018-04-14T00:58:43.323Z,41.50
2018-04-14T01:01:10.909Z,41.87
2018-04-14T01:03:38.466Z,43.27
2018-04-14T01:06:07.336Z,42.90
2018-04-14T01:08:34.934Z,43.23
2018-04-14T01:11:03.213Z,40.80
2018-04-14T01:13:30.823Z,40.30
2018-04-14T01:15:58.352Z,40.67
2018-04-14T01:18:25.854Z,42.43
2018-04-14T01:20:53.431Z,42.23
2018-04-14T01:23:20.998Z,41.53
2018-04-14T01:25:49.286Z,40.80
2018-04-14T01:28:17.823Z,41.55
2018-04-14T01:30:45.334Z,40.83
2018-04-14T01:33:12.857Z,39.37
2018-04-14T01:35:40.442Z,40.13
2018-04-14T01:38:08.737Z,40.67
2018-04-14T01:40:37.022Z,43.50
2018-04-14T01:43:04.633Z,43.17
2018-04-14T01:45:32.142Z,42.83
2018-04-14T01:47:59.734Z,41.37
2018-04-14T01:50:27.280Z,43.83
2018-04-14T01:52:54.801Z,43.03
2018-04-14T01:55:22.343Z,45.00
2018-04-14T01:57:49.940Z,42.80
2018-04-14T02:00:17.481Z,43.00
2018-04-14T02:02:45.769Z,44.00
2018-04-14T02:05:14.063Z,43.13
2018-04-14T02:07:41.581Z,41.47
2018-04-14T02:10:09.124Z,43.57
2018-04-14T02:12:36.702Z,43.30
2018-04-14T02:15:04.218Z,44.53
2018-04-14T02:17:31.771Z,43.50
2018-04-14T02:19:59.313Z,41.97
2018-04-14T02:22:27.594Z,40.33
2018-04-14T02:24:55.206Z,42.40
2018-04-14T02:27:22.710Z,43.60
2018-04-14T02:29:50.219Z,41.30
2018-04-14T02:32:17.756Z,42.07
2018-04-14T02:34:45.266Z,41.03
2018-04-14T02:37:12.801Z,41.27
2018-04-14T02:39:40.326Z,39.93
2018-04-14T02:42:08.610Z,39.67
2018-04-14T02:44:36.139Z,42.43
2018-04-14T02:47:03.706Z,40.97
2018-04-14T02:49:31.230Z,42.83
2018-04-14T02:51:58.821Z,44.33
2018-04-14T02:54:26.346Z,41.77
2018-04-14T02:56:53.847Z,43.07
2018-04-14T02:59:22.123Z,42.83
2018-04-14T03:01:49.654Z,44.13
2018-04-14T03:04:17.170Z,43.50
2018-04-14T03:06:44.681Z,44.30
2018-04-14T03:09:12.305Z,42.57
2018-04-14T03:11:39.829Z,43.63
2018-04-14T03:14:07.341Z,42.47
2018-04-14T03:16:34.914Z,41.20
2018-04-14T03:19:02.842Z,42.07
2018-04-14T03:21:30.346Z,41.80
2018-04-14T03:23:57.886Z,39.50
2018-04-14T03:26:25.425Z,42.47
2018-04-14T03:28:52.943Z,42.20
2018-04-14T03:31:20.478Z,41.50
2018-04-14T03:33:47.987Z,41.77
2018-04-14T03:36:16.266Z,43.53
2018-04-14T03:38:43.769Z,42.00
2018-04-14T03:41:11.316Z,42.23
2018-04-14T03:43:38.817Z,41.07
2018-04-14T03:46:06.351Z,42.70
2018-04-14T03:48:33.880Z,43.47
2018-04-14T03:51:01.402Z,42.90
2018-04-14T03:53:28.933Z,44.07
2018-04-14T03:55:56.442Z,41.07
2018-04-14T03:58:24.713Z,42.80
2018-04-14T04:00:53.160Z,43.53
2018-04-14T04:03:20.674Z,43.10
2018-04-14T04:05:48.214Z,42.43
2018-04-14T04:08:16.513Z,41.97
2018-04-14T04:10:44.787Z,43.33
2018-04-14T04:13:13.086Z,42.13
2018-04-14T04:15:40.666Z,43.80
2018-04-14T04:18:08.162Z,43.50
2018-04-14T04:21:00.291Z,43.20
2018-04-14T04:23:39.624Z,43.00
2018-04-14T04:26:07.189Z,41.70
2018-04-14T04:28:35.195Z,42.53
2018-04-14T04:31:03.457Z,42.07
2018-04-14T04:33:31.752Z,42.17
2018-04-14T04:36:00.179Z,41.67
2018-04-14T04:38:27.687Z,42.73
2018-04-14T04:40:56.024Z,42.53
2018-04-14T04:43:23.536Z,41.53
2018-04-14T04:45:51.051Z,42.00
2018-04-14T04:48:18.582Z,42.93
2018-04-14T04:50:46.098Z,42.27
2018-04-14T04:53:14.374Z,43.57
2018-04-14T04:55:42.670Z,44.17
2018-04-14T04:58:10.235Z,41.93
2018-04-14T05:00:37.741Z,43.10
2018-04-14T05:03:05.281Z,43.77
2018-04-14T05:05:33.561Z,43.23
2018-04-14T05:08:01.150Z,43.73
2018-04-14T05:10:28.671Z,43.07
2018-04-14T05:12:56.933Z,42.57
2018-04-14T05:15:24.454Z,43.17
2018-04-14T05:17:52.176Z,43.07
2018-04-14T05:20:19.740Z,43.27
2018-04-14T05:22:47.267Z,44.83
2018-04-14T05:25:14.806Z,40.97
2018-04-14T05:27:42.323Z,42.70
2018-04-14T05:30:09.951Z,42.50
2018-04-14T05:32:37.470Z,41.27
2018-04-14T05:35:05.091Z,42.33
2018-04-14T05:37:33.387Z,42.47
2018-04-14T05:40:01.401Z,44.23
2018-04-14T05:42:28.937Z,44.70
2018-04-14T05:44:56.433Z,43.07
2018-04-14T05:47:24.712Z,44.70
2018-04-14T05:49:53.001Z,42.83
2018-04-14T05:52:20.982Z,43.23
2018-04-14T05:54:48.541Z,43.43
2018-04-14T05:57:16.081Z,42.83
2018-04-14T05:59:43.590Z,42.27
2018-04-14T06:02:11.149Z,42.77
2018-04-14T06:04:38.999Z,43.20
2018-04-14T06:07:06.500Z,44.37
2018-04-14T06:09:33.992Z,41.37
2018-04-14T06:12:01.690Z,42.20
2018-04-14T06:14:29.224Z,43.43
2018-04-14T06:16:57.690Z,42.33
2018-04-14T06:19:26.024Z,45.30
2018-04-14T06:21:53.522Z,45.47
2018-04-14T06:24:21.042Z,47.23
2018-04-14T06:26:48.581Z,44.30
2018-04-14T06:29:16.103Z,45.73
2018-04-14T06:31:43.621Z,45.33
2018-04-14T06:34:11.150Z,43.47
2018-04-14T06:36:38.666Z,45.23
2018-04-14T06:39:06.205Z,45.37
2018-04-14T06:41:33.750Z,50.40
2018-04-14T06:44:01.300Z,48.83
2018-04-14T06:46:29.577Z,46.27
2018-04-14T06:48:57.122Z,47.63
2018-04-14T06:51:25.487Z,48.27
2018-04-14T06:53:52.994Z,48.30
2018-04-14T06:56:20.551Z,51.07
2018-04-14T06:58:48.095Z,48.87
2018-04-14T07:01:16.371Z,52.17
2018-04-14T07:03:43.895Z,50.40
2018-04-14T07:06:11.481Z,55.57
2018-04-14T07:08:39.756Z,52.17
2018-04-14T07:11:07.275Z,53.40
2018-04-14T07:13:34.858Z,54.10
2018-04-14T07:16:02.422Z,54.67
2018-04-14T07:18:29.950Z,56.90
2018-04-14T07:20:57.518Z,58.30
2018-04-14T07:23:25.042Z,56.03
2018-04-14T07:25:52.559Z,58.37
2018-04-14T07:28:20.109Z,58.83
2018-04-14T07:30:47.692Z,60.47
2018-04-14T07:33:15.209Z,57.40
2018-04-14T07:35:42.787Z,58.10
2018-04-14T07:38:10.298Z,57.10
2018-04-14T07:40:37.845Z,58.37
2018-04-14T07:43:05.418Z,57.77
2018-04-14T07:45:32.939Z,57.10
2018-04-14T07:48:00.462Z,57.10
2018-04-14T07:50:28.736Z,57.67
2018-04-14T07:52:56.262Z,53.20
2018-04-14T07:55:23.905Z,55.40
2018-04-14T07:57:51.417Z,51.83
2018-04-14T08:00:18.919Z,55.20
2018-04-14T08:02:46.461Z,51.13
2018-04-14T08:05:13.973Z,50.87
2018-04-14T08:07:41.487Z,52.23
2018-04-14T08:10:09.019Z,50.67
2018-04-14T08:12:36.536Z,45.67
2018-04-14T08:15:04.055Z,53.17
2018-04-14T08:17:31.601Z,52.67
2018-04-14T08:19:59.109Z,51.43
2018-04-14T08:22:26.645Z,50.63
2018-04-14T08:24:54.202Z,51.50
2018-04-14T08:27:21.726Z,51.23
2018-04-14T08:29:50.025Z,49.83
2018-04-14T08:32:17.572Z,52.77
2018-04-14T08:34:45.129Z,53.27
2018-04-14T08:37:12.657Z,52.73
2018-04-14T08:39:40.208Z,51.90
2018-04-14T08:42:07.720Z,52.13
2018-04-14T08:44:36.438Z,50.40
2018-04-14T08:47:03.945Z,51.30
2018-04-14T08:49:31.482Z,51.33
2018-04-14T08:51:59.929Z,52.27
2018-04-14T08:54:27.461Z,51.40
2018-04-14T08:56:54.990Z,47.93
2018-04-14T08:59:22.549Z,48.90
2018-04-14T09:01:50.135Z,51.13
2018-04-14T09:04:17.658Z,51.20
2018-04-14T09:06:45.210Z,54.17
2018-04-14T09:09:12.714Z,51.07
2018-04-14T09:11:40.994Z,50.13
2018-04-14T09:14:08.558Z,48.83
2018-04-14T09:16:36.870Z,46.90
2018-04-14T09:19:04.378Z,54.97
2018-04-14T09:21:32.681Z,54.47
2018-04-14T09:24:00.227Z,52.30
2018-04-14T09:26:27.790Z,53.07
2018-04-14T09:28:56.112Z,51.13
2018-04-14T09:31:23.640Z,38.77
2018-04-14T09:33:51.203Z,46.30
2018-04-14T09:36:20.121Z,48.33
2018-04-14T09:38:48.362Z,43.03
2018-04-14T09:41:16.661Z,44.23
2018-04-14T09:43:44.217Z,51.97
2018-04-14T09:46:12.666Z,52.70
2018-04-14T09:48:40.178Z,53.33
2018-04-14T09:51:07.766Z,52.20
2018-04-14T09:53:36.562Z,51.63
2018-04-14T09:56:04.182Z,50.67
2018-04-14T09:58:31.745Z,51.33
2018-04-14T10:01:01.209Z,37.63
2018-04-14T10:03:28.757Z,27.30
2018-04-14T10:05:56.417Z,47.13
2018-04-14T10:08:23.941Z,52.10
2018-04-14T10:10:51.465Z,49.87
2018-04-14T10:13:19.262Z,49.63
2018-04-14T10:15:46.791Z,43.93
2018-04-14T10:18:15.098Z,49.83
2018-04-14T10:20:42.618Z,47.37
2018-04-14T10:23:11.846Z,46.53
2018-04-14T10:25:40.197Z,47.87
2018-04-14T10:28:07.747Z,49.27
2018-04-14T10:30:35.261Z,53.77
2018-04-14T10:33:02.813Z,53.00
2018-04-14T10:35:30.391Z,51.43
2018-04-14T10:37:57.992Z,48.93
2018-04-14T10:40:26.436Z,49.57
2018-04-14T10:42:53.962Z,49.77
2018-04-14T10:45:22.284Z,52.20
2018-04-14T10:48:03.645Z,50.37
2018-04-14T10:50:31.183Z,50.37
2018-04-14T10:52:58.727Z,50.80
2018-04-14T10:55:26.303Z,52.93
2018-04-14T10:57:54.793Z,52.17
2018-04-14T11:00:23.094Z,50.70
2018-04-14T11:02:50.630Z,49.97
2018-04-14T11:05:18.942Z,51.33
2018-04-14T11:07:46.467Z,51.37
2018-04-14T11:12:59.610Z,48.13
2018-04-14T11:15:27.223Z,43.07
2018-04-14T11:17:54.746Z,51.17
2018-04-14T11:20:22.326Z,47.73
2018-04-14T11:22:49.896Z,55.97
2018-04-14T11:25:17.426Z,35.33
2018-04-14T11:27:44.966Z,49.17
2018-04-14T11:30:12.524Z,47.87
2018-04-14T11:32:40.850Z,51.40
2018-04-14T11:45:34.331Z,52.43
2018-04-14T11:56:28.993Z,43.07
2018-04-14T11:59:12.189Z,45.50
2018-04-14T12:01:42.700Z,48.60
2018-04-14T12:04:10.294Z,37.23
2018-04-14T12:12:11.347Z,49.17
2018-04-14T12:14:39.852Z,48.57
2018-04-14T12:17:08.752Z,43.53
2018-04-14T12:19:38.275Z,47.53
2018-04-14T12:22:06.547Z,46.93
2018-04-14T12:24:35.157Z,47.13
2018-04-14T12:27:02.687Z,47.80
2018-04-14T12:29:30.973Z,39.23
2018-04-14T12:31:59.259Z,45.47
2018-04-14T12:34:26.813Z,47.93
2018-04-14T12:36:55.125Z,33.07
2018-04-14T12:39:22.642Z,46.07
2018-04-14T12:41:51.205Z,47.93
2018-04-14T12:44:18.689Z,46.83
2018-04-14T12:46:47.030Z,41.97
2018-04-14T12:49:14.548Z,45.87
2018-04-14T12:51:42.070Z,45.07
2018-04-14T12:54:09.655Z,45.77
2018-04-14T12:56:37.173Z,46.30
2018-04-14T12:59:04.702Z,47.17
2018-04-14T13:01:32.242Z,32.50
2018-04-14T13:04:00.518Z,42.63
2018-04-14T13:06:28.830Z,42.23
2018-04-14T13:08:56.399Z,43.20
2018-04-14T13:11:23.907Z,44.23
2018-04-14T13:13:52.217Z,38.93
2018-04-14T13:16:19.754Z,46.57
2018-04-14T13:18:47.286Z,47.97
2018-04-14T13:21:14.792Z,50.30
2018-04-14T13:23:42.359Z,48.47
2018-04-14T13:26:09.913Z,46.17
2018-04-14T13:28:37.490Z,33.00
2018-04-14T13:31:05.107Z,34.33
2018-04-14T13:33:33.386Z,43.43
2018-04-14T13:36:01.708Z,42.83
2018-04-14T13:38:29.259Z,40.30
2018-04-14T13:40:56.813Z,32.43
2018-04-14T13:43:24.366Z,44.30
2018-04-14T13:45:51.917Z,33.13
2018-04-14T13:48:20.198Z,47.30
2018-04-14T13:50:48.478Z,40.43
2018-04-14T13:53:16.816Z,36.77
2018-04-14T13:55:44.330Z,32.87
2018-04-14T13:58:11.854Z,31.77
2018-04-14T14:00:40.193Z,31.03
2018-04-14T14:03:07.737Z,43.67
2018-04-14T14:05:35.242Z,39.83
2018-04-14T14:08:02.773Z,38.80
2018-04-14T14:10:30.342Z,44.50
2018-04-14T14:12:57.886Z,33.07
2018-04-14T14:15:25.430Z,43.30
2018-04-14T14:17:52.959Z,33.50
2018-04-14T14:20:21.279Z,30.53
2018-04-14T14:22:49.395Z,42.00
2018-04-14T14:25:16.911Z,31.40
2018-04-14T14:27:44.450Z,31.37
2018-04-14T14:30:12.778Z,32.53
2018-04-14T14:32:40.282Z,33.83
2018-04-14T14:35:08.599Z,31.60
2018-04-14T14:37:36.130Z,38.40
2018-04-14T14:40:05.330Z,37.53
2018-04-14T14:42:32.954Z,40.57
2018-04-14T14:45:00.422Z,36.60
2018-04-14T14:47:27.938Z,39.70
2018-04-14T14:50:01.007Z,37.07
2018-04-14T14:52:28.681Z,41.23
2018-04-14T14:54:56.233Z,34.43
2018-04-14T14:57:23.765Z,30.43
2018-04-14T14:59:52.080Z,39.27
2018-04-14T15:02:19.654Z,35.43
2018-04-14T15:04:47.166Z,37.10
2018-04-14T15:07:16.124Z,36.13
2018-04-14T15:09:44.511Z,34.10
2018-04-14T15:12:12.033Z,30.33
2018-04-14T15:14:39.612Z,35.07
2018-04-14T15:17:07.287Z,36.90
2018-04-14T15:19:34.790Z,35.10
2018-04-14T15:22:03.072Z,39.43
2018-04-14T15:24:31.374Z,33.17
2018-04-14T15:26:58.901Z,27.70
2018-04-14T15:29:27.183Z,39.00
2018-04-14T15:31:56.439Z,34.13
2018-04-14T15:34:25.642Z,39.43
2018-04-14T15:36:53.172Z,41.60
2018-04-14T15:39:20.703Z,40.47
2018-04-14T15:41:49.022Z,37.10
2018-04-14T15:44:16.576Z,35.33
2018-04-14T15:46:44.160Z,37.93
2018-04-14T15:49:11.686Z,36.17
2018-04-14T15:51:39.225Z,38.27
2018-04-14T15:54:07.573Z,35.97
2018-04-14T15:56:35.126Z,35.57
2018-04-14T15:59:02.959Z,35.53
2018-04-14T16:01:30.477Z,34.53
2018-04-14T16:03:58.832Z,31.77
2018-04-14T16:06:26.343Z,29.93
2018-04-14T16:08:54.681Z,35.70
2018-04-14T16:11:22.236Z,37.73
2018-04-14T16:13:49.766Z,30.70
2018-04-14T16:16:17.298Z,36.27
2018-04-14T16:18:45.643Z,32.17
2018-04-14T16:21:13.167Z,34.70
2018-04-14T16:23:40.674Z,36.33
2018-04-14T16:26:08.211Z,34.03
2018-04-14T16:28:35.722Z,33.07
2018-04-14T16:31:03.323Z,35.83
2018-04-14T16:33:30.891Z,33.57
2018-04-14T16:35:58.458Z,32.77
2018-04-14T16:38:25.971Z,28.83
2018-04-14T16:40:53.509Z,31.27
2018-04-14T16:43:21.789Z,34.87
2018-04-14T16:45:50.178Z,33.83
2018-04-14T16:48:18.478Z,34.87
2018-04-14T16:50:45.993Z,34.07
2018-04-14T16:53:13.541Z,34.30
2018-04-14T16:55:41.066Z,34.80
2018-04-14T16:58:08.601Z,35.40
2018-04-14T17:00:37.033Z,33.77
2018-04-14T17:03:04.541Z,33.87
2018-04-14T17:05:32.822Z,34.30
2018-04-14T17:08:01.127Z,35.23
2018-04-14T17:10:28.659Z,35.40
2018-04-14T17:12:56.943Z,34.53
2018-04-14T17:15:25.244Z,36.23
2018-04-14T17:17:52.816Z,36.13
2018-04-14T17:20:20.325Z,38.43
2018-04-14T17:22:48.644Z,33.83
2018-04-14T17:25:16.217Z,36.27
2018-04-14T17:27:43.788Z,34.20
2018-04-14T17:30:11.354Z,34.03
2018-04-14T17:32:38.880Z,36.30
2018-04-14T17:35:07.182Z,35.40
2018-04-14T17:37:34.704Z,32.73
2018-04-14T17:40:02.992Z,30.87
2018-04-14T17:42:30.522Z,33.87
2018-04-14T17:44:58.818Z,31.80
2018-04-14T17:47:27.091Z,34.33
2018-04-14T17:49:54.648Z,34.27
2018-04-14T17:52:22.927Z,35.17
2018-04-14T17:54:51.246Z,35.80
2018-04-14T17:57:18.766Z,35.27
2018-04-14T17:59:47.062Z,34.37
2018-04-14T18:02:14.609Z,35.43
2018-04-14T18:04:42.881Z,32.90
2018-04-14T18:07:11.163Z,35.73
2018-04-14T18:09:39.512Z,32.70
2018-04-14T18:12:06.997Z,36.57
2018-04-14T18:14:35.282Z,37.00
2018-04-14T18:17:03.602Z,34.90
2018-04-14T18:19:31.150Z,38.13
2018-04-14T18:21:58.665Z,36.43
2018-04-14T18:24:26.327Z,32.40
2018-04-14T18:26:54.629Z,33.67
2018-04-14T18:29:22.927Z,37.97
2018-04-14T18:31:50.474Z,37.37
2018-04-14T18:34:17.989Z,36.13
2018-04-14T18:36:45.526Z,39.80
2018-04-14T18:39:13.050Z,37.20
2018-04-14T18:41:41.348Z,39.73
2018-04-14T18:44:08.943Z,40.30
2018-04-14T18:46:36.475Z,41.27
2018-04-14T18:49:04.001Z,40.27
2018-04-14T18:51:32.296Z,38.30
2018-04-14T18:53:59.837Z,39.90
2018-04-14T18:56:28.161Z,39.60
2018-04-14T18:58:55.677Z,39.43
2018-04-14T19:01:23.210Z,41.60
2018-04-14T19:03:50.843Z,40.33
2018-04-14T19:06:18.385Z,40.43
2018-04-14T19:08:45.950Z,41.13
2018-04-14T19:11:13.585Z,37.90
2018-04-14T19:13:41.873Z,40.83
2018-04-14T19:16:09.470Z,39.10
2018-04-14T19:18:36.983Z,41.23
2018-04-14T19:21:05.278Z,40.13
2018-04-14T19:23:32.815Z,42.03
2018-04-14T19:26:01.247Z,39.57
2018-04-14T19:28:28.778Z,40.03
2018-04-14T19:30:57.058Z,41.87
2018-04-14T19:33:24.658Z,40.80
2018-04-14T19:35:52.207Z,40.63
2018-04-14T19:38:19.754Z,40.30
2018-04-14T19:40:47.365Z,39.63
2018-04-14T19:43:14.946Z,40.77
2018-04-14T19:45:42.434Z,32.70
2018-04-14T19:48:09.994Z,42.17
2018-04-14T19:50:38.388Z,42.83
2018-04-14T19:53:05.893Z,43.40
2018-04-14T19:55:33.547Z,38.07
2018-04-14T19:58:01.064Z,42.50
2018-04-14T20:00:28.588Z,42.80
2018-04-14T20:02:56.916Z,41.93
2018-04-14T20:05:24.435Z,38.17
2018-04-14T20:07:52.728Z,41.70
2018-04-14T20:10:20.274Z,41.43
2018-04-14T20:12:48.564Z,43.80
2018-04-14T20:15:16.117Z,41.67
2018-04-14T20:17:43.678Z,43.73
2018-04-14T20:20:11.987Z,41.47
2018-04-14T20:22:39.510Z,41.00
2018-04-14T20:25:07.853Z,41.83
2018-04-14T20:27:35.352Z,40.90
2018-04-14T20:30:04.581Z,41.60
2018-04-14T20:32:32.143Z,42.33
2018-04-14T20:34:59.657Z,39.50
2018-04-14T20:37:27.178Z,43.93
2018-04-14T20:39:54.712Z,39.83
2018-04-14T20:42:22.234Z,45.23
2018-04-14T20:44:50.529Z,44.43
2018-04-14T20:47:18.845Z,42.47
2018-04-14T20:49:46.358Z,38.50
2018-04-14T20:52:14.115Z,41.80
2018-04-14T20:54:41.654Z,44.67
2018-04-14T20:57:09.168Z,40.50
2018-04-14T20:59:36.691Z,45.57
2018-04-14T21:02:04.220Z,41.13
2018-04-14T21:04:31.746Z,37.80
2018-04-14T21:06:59.543Z,41.63
2018-04-14T21:09:27.144Z,44.57
2018-04-14T21:11:54.676Z,46.53
2018-04-14T21:14:22.188Z,43.27
2018-04-14T21:16:50.508Z,44.90
2018-04-14T21:19:18.024Z,39.87
2018-04-14T21:21:45.555Z,44.77
2018-04-14T21:24:13.102Z,45.27
2018-04-14T21:26:40.617Z,36.60
2018-04-14T21:29:08.135Z,38.53
2018-04-14T21:31:35.676Z,44.27
2018-04-14T21:34:03.190Z,45.03
2018-04-14T21:36:31.459Z,47.27
2018-04-14T21:38:59.034Z,48.03
2018-04-14T21:41:26.627Z,46.43
2018-04-14T21:43:54.134Z,41.70
2018-04-14T21:46:22.621Z,44.50
2018-04-14T21:48:50.951Z,36.60
2018-04-14T21:51:18.541Z,42.03
2018-04-14T21:53:46.107Z,47.87
2018-04-14T21:56:13.616Z,48.00
2018-04-14T21:58:41.902Z,43.67
2018-04-14T22:01:09.444Z,43.03
2018-04-14T22:03:37.719Z,46.83
2018-04-14T22:06:05.239Z,43.10
2018-04-14T22:08:32.808Z,47.37
2018-04-14T22:11:00.334Z,48.20
2018-04-14T22:13:27.872Z,47.50
2018-04-14T22:15:55.406Z,47.87
2018-04-14T22:18:23.704Z,50.83
2018-04-14T22:20:51.229Z,50.70
2018-04-14T22:23:18.779Z,51.33
2018-04-14T22:25:46.279Z,51.73
2018-04-14T22:28:14.545Z,50.10
2018-04-14T22:30:42.841Z,50.17
2018-04-14T22:33:10.373Z,53.97
2018-04-14T22:35:38.618Z,53.60
2018-04-14T22:38:06.197Z,53.97
2018-04-14T22:40:33.780Z,53.20
2018-04-14T22:43:02.052Z,50.50
2018-04-14T22:45:30.374Z,49.60
2018-04-14T22:47:57.900Z,51.17
2018-04-14T22:50:25.463Z,48.20
2018-04-14T22:52:53.797Z,48.33
2018-04-14T22:55:21.311Z,47.67
2018-04-14T22:57:49.578Z,49.33
2018-04-14T23:00:17.887Z,47.83
2018-04-14T23:02:45.397Z,40.73
2018-04-14T23:05:12.916Z,50.87
2018-04-14T23:07:40.550Z,48.23
2018-04-14T23:10:08.059Z,49.20
2018-04-14T23:12:35.572Z,49.73
2018-04-14T23:15:03.101Z,46.73
2018-04-14T23:17:30.610Z,54.00
2018-04-14T23:19:58.116Z,44.10
2018-04-14T23:22:25.650Z,54.90
2018-04-14T23:24:53.158Z,49.17
2018-04-14T23:27:21.442Z,50.47
2018-04-14T23:29:49.763Z,56.70
2018-04-14T23:32:17.291Z,53.20
2018-04-14T23:34:44.834Z,56.80
2018-04-14T23:37:13.117Z,58.00
2018-04-14T23:39:41.420Z,55.43
2018-04-14T23:42:08.924Z,58.13
2018-04-14T23:44:36.443Z,59.20
2018-04-14T23:47:03.982Z,54.07
2018-04-14T23:49:32.245Z,55.83
2018-04-14T23:52:00.530Z,58.60
2018-04-14T23:54:28.857Z,59.47
2018-04-14T23:56:56.386Z,57.70
2018-04-14T23:59:23.918Z,54.70
